Time;durP1;ratioP1;P1;durP2;ratioP2;P2;SDS_P1;SDS_P2;PMS_P1;PMS_P2;Temp;Humidity;BMP_temperature;BMP_pressure;BME280_temperature;BME280_humidity;BME280_pressure;Samples;Min_cycle;Max_cycle;Signal;HPM_P1;HPM_P2
2022/12/29 00:00:09;;;;;;;16.87;15.77;;;7.70;99.90;;;;;;6211493;23;20436;-76
2022/12/29 00:02:36;;;;;;;16.80;15.63;;;7.60;99.90;;;;;;6211693;23;20417;-77
2022/12/29 00:05:04;;;;;;;15.90;15.10;;;7.70;99.90;;;;;;6211532;23;20446;-77
2022/12/29 00:07:31;;;;;;;15.83;15.03;;;7.70;99.90;;;;;;6211465;23;20455;-77
2022/12/29 00:09:58;;;;;;;17.10;16.00;;;7.70;99.90;;;;;;6212559;23;20412;-77
2022/12/29 00:12:24;;;;;;;16.70;15.70;;;7.70;99.90;;;;;;6211634;23;20409;-77
2022/12/29 00:17:36;;;;;;;15.77;14.87;;;7.70;99.90;;;;;;6225907;23;20420;-78
2022/12/29 00:36:44;;;;;;;15.40;14.60;;;8.00;99.90;;;;;;6203658;23;20395;-77
2022/12/29 00:44:48;;;;;;;16.20;15.20;;;8.10;99.90;;;;;;6211793;23;20772;-77
2022/12/29 00:47:15;;;;;;;16.10;14.93;;;8.10;99.90;;;;;;6211045;23;20444;-77
2022/12/29 00:49:41;;;;;;;15.83;14.80;;;8.20;99.90;;;;;;6211038;23;20416;-77
2022/12/29 00:52:11;;;;;;;16.60;15.47;;;8.20;99.90;;;;;;6211213;23;20408;-77
2022/12/29 00:54:39;;;;;;;16.97;15.57;;;8.30;99.90;;;;;;6211332;23;20184;-77
2022/12/29 00:57:07;;;;;;;17.27;15.97;;;8.30;99.90;;;;;;6211375;23;20416;-77
2022/12/29 00:59:36;;;;;;;17.13;16.07;;;8.30;99.90;;;;;;6211082;23;20440;-77
2022/12/29 01:02:03;;;;;;;16.67;15.77;;;8.20;99.90;;;;;;6211343;23;20415;-76
2022/12/29 01:04:30;;;;;;;16.50;15.50;;;8.10;99.90;;;;;;6211127;23;20409;-77
2022/12/29 01:06:56;;;;;;;17.63;16.63;;;8.10;99.90;;;;;;6210924;23;20680;-77
2022/12/29 01:12:10;;;;;;;18.20;17.00;;;8.00;99.90;;;;;;6210929;23;20436;-75
2022/12/29 01:14:37;;;;;;;17.10;16.03;;;7.90;99.90;;;;;;6211351;23;20405;-77
2022/12/29 01:17:04;;;;;;;17.40;15.97;;;7.80;99.90;;;;;;6211619;23;20400;-77
2022/12/29 01:19:31;;;;;;;17.73;16.67;;;7.80;99.90;;;;;;6210986;23;20409;-77
2022/12/29 01:21:58;;;;;;;17.20;16.10;;;7.80;99.90;;;;;;6210627;23;20413;-74
2022/12/29 01:24:26;;;;;;;16.73;15.73;;;7.90;99.90;;;;;;6210815;23;20413;-77
2022/12/29 01:26:54;;;;;;;17.13;16.13;;;7.90;99.90;;;;;;6211064;23;20445;-76
2022/12/29 01:29:20;;;;;;;16.53;15.43;;;8.00;99.90;;;;;;6211279;23;20431;-75
2022/12/29 01:31:49;;;;;;;16.10;15.20;;;8.00;99.90;;;;;;6211105;23;20409;-75
2022/12/29 01:34:15;;;;;;;16.50;15.50;;;8.00;99.90;;;;;;6212657;23;20428;-75
2022/12/29 01:36:42;;;;;;;16.47;15.37;;;8.10;99.90;;;;;;6212865;23;20409;-77
2022/12/29 01:39:09;;;;;;;16.37;15.37;;;8.10;99.90;;;;;;6212753;23;20417;-75
2022/12/29 01:41:37;;;;;;;15.83;14.93;;;8.10;99.90;;;;;;6213245;23;20404;-76
2022/12/29 01:44:03;;;;;;;15.70;14.80;;;8.20;99.90;;;;;;6213113;23;20405;-75
2022/12/29 01:46:34;;;;;;;16.87;15.77;;;8.20;99.90;;;;;;6212701;23;20420;-75
2022/12/29 01:49:08;;;;;;;15.97;15.07;;;8.20;99.90;;;;;;6212710;23;20393;-77
2022/12/29 01:51:38;;;;;;;15.63;14.73;;;8.30;99.90;;;;;;6213153;23;20412;-76
2022/12/29 01:54:09;;;;;;;16.73;15.63;;;8.20;99.90;;;;;;6212999;23;20412;-75
2022/12/29 01:56:38;;;;;;;18.23;16.80;;;8.20;99.90;;;;;;6213137;23;20389;-75
2022/12/29 01:59:08;;;;;;;17.33;16.13;;;8.10;99.90;;;;;;6212050;23;20447;-76
2022/12/29 02:01:35;;;;;;;16.73;15.73;;;8.10;99.90;;;;;;6212635;23;20389;-76
2022/12/29 02:04:02;;;;;;;17.10;16.00;;;8.20;99.90;;;;;;6212328;23;20499;-76
2022/12/29 02:06:33;;;;;;;15.93;15.03;;;8.30;99.90;;;;;;6212278;23;20411;-76
2022/12/29 02:09:01;;;;;;;15.43;14.60;;;8.40;99.90;;;;;;6212136;23;20428;-76
2022/12/29 02:11:29;;;;;;;15.37;14.43;;;8.60;99.90;;;;;;6212188;23;20638;-76
2022/12/29 02:13:57;;;;;;;15.70;14.40;;;8.60;99.90;;;;;;6212122;23;20412;-77
2022/12/29 02:16:49;;;;;;;16.27;15.20;;;8.70;99.90;;;;;;6212305;23;20459;-76
2022/12/29 02:19:55;;;;;;;14.80;14.00;;;8.70;99.90;;;;;;6212273;23;20721;-77
2022/12/29 02:22:31;;;;;;;15.67;14.60;;;8.80;99.90;;;;;;6212697;23;20393;-76
2022/12/29 02:25:20;;;;;;;16.20;15.20;;;8.70;99.90;;;;;;6212007;23;20415;-76
2022/12/29 02:28:17;;;;;;;15.27;14.47;;;8.80;99.90;;;;;;6211696;23;20444;-76
2022/12/29 02:30:54;;;;;;;16.30;15.40;;;8.90;99.90;;;;;;6212292;23;20486;-76
2022/12/29 02:33:37;;;;;;;16.37;14.93;;;8.80;99.90;;;;;;6212085;23;20856;-76
2022/12/29 02:36:12;;;;;;;14.87;14.00;;;8.90;99.90;;;;;;6212729;23;20716;-76
2022/12/29 02:38:51;;;;;;;15.57;14.67;;;9.00;99.90;;;;;;6212275;23;20388;-75
2022/12/29 02:41:22;;;;;;;14.87;13.80;;;9.10;99.90;;;;;;6212259;23;20392;-76
2022/12/29 02:43:54;;;;;;;15.40;14.50;;;9.20;99.90;;;;;;6211945;23;20400;-76
2022/12/29 02:46:28;;;;;;;14.77;14.00;;;9.20;99.90;;;;;;6212567;23;20400;-75
2022/12/29 02:49:02;;;;;;;14.07;13.27;;;9.20;99.90;;;;;;6212036;23;20435;-76
2022/12/29 02:51:35;;;;;;;13.87;13.17;;;9.30;99.90;;;;;;6212239;23;20393;-76
2022/12/29 02:56:49;;;;;;;14.10;13.20;;;9.60;99.90;;;;;;6186001;23;20400;-75
2022/12/29 02:59:16;;;;;;;14.60;13.80;;;9.60;99.90;;;;;;6211726;23;20436;-74
2022/12/29 03:05:08;;;;;;;14.30;13.57;;;9.60;99.90;;;;;;6209255;23;20897;-75
2022/12/29 03:07:44;;;;;;;14.27;13.57;;;9.70;99.90;;;;;;6212378;23;20432;-75
2022/12/29 03:10:21;;;;;;;14.03;13.43;;;9.70;99.90;;;;;;6211899;23;20411;-75
2022/12/29 03:16:01;;;;;;;14.83;13.93;;;9.60;99.90;;;;;;6212204;23;20472;-75
2022/12/29 03:18:39;;;;;;;14.60;13.60;;;9.50;99.90;;;;;;6212019;23;20436;-75
2022/12/29 03:21:11;;;;;;;15.10;14.30;;;9.40;99.90;;;;;;6212119;23;20423;-75
2022/12/29 03:23:40;;;;;;;14.80;14.10;;;9.40;99.90;;;;;;6211674;23;20404;-75
2022/12/29 03:26:12;;;;;;;14.30;13.60;;;9.50;99.90;;;;;;6212246;23;20405;-75
2022/12/29 03:28:44;;;;;;;14.90;13.27;;;9.50;99.90;;;;;;6211795;23;20448;-75
2022/12/29 03:31:12;;;;;;;13.30;12.37;;;9.70;99.90;;;;;;6211814;23;20400;-75
2022/12/29 03:33:42;;;;;;;13.50;12.90;;;9.80;99.90;;;;;;6211898;23;20714;-75
2022/12/29 03:36:13;;;;;;;14.10;13.23;;;10.10;99.90;;;;;;6211511;23;20897;-75
2022/12/29 03:38:47;;;;;;;13.10;12.20;;;10.30;99.90;;;;;;6211710;23;20703;-76
2022/12/29 03:41:17;;;;;;;13.60;13.00;;;10.40;99.90;;;;;;6211334;23;20873;-75
2022/12/29 03:43:44;;;;;;;12.87;12.37;;;10.40;99.90;;;;;;6211614;23;20389;-76
2022/12/29 03:46:11;;;;;;;12.60;11.80;;;10.40;99.90;;;;;;6211771;23;20416;-77
2022/12/29 03:48:38;;;;;;;12.30;11.80;;;10.60;99.90;;;;;;6211732;23;20444;-75
2022/12/29 03:51:06;;;;;;;12.40;11.70;;;10.90;99.90;;;;;;6211555;23;20412;-75
2022/12/29 03:53:32;;;;;;;11.90;11.33;;;11.00;99.90;;;;;;6212045;23;20729;-76
2022/12/29 03:55:59;;;;;;;11.90;11.40;;;11.20;99.90;;;;;;6211218;23;21003;-75
2022/12/29 03:58:26;;;;;;;12.20;11.60;;;11.50;99.90;;;;;;6211296;23;20752;-75
2022/12/29 04:00:52;;;;;;;12.13;11.63;;;11.70;99.90;;;;;;6211275;23;20440;-75
2022/12/29 04:03:20;;;;;;;11.30;10.87;;;11.70;99.90;;;;;;6212092;23;20447;-75
2022/12/29 04:05:47;;;;;;;11.20;10.80;;;11.60;99.90;;;;;;6211539;23;20413;-76
2022/12/29 04:08:15;;;;;;;11.33;10.93;;;11.60;99.90;;;;;;6210866;23;20605;-76
2022/12/29 04:10:41;;;;;;;12.20;11.80;;;11.60;99.90;;;;;;6211544;23;20411;-76
2022/12/29 04:13:08;;;;;;;12.50;12.00;;;11.60;99.90;;;;;;6211579;23;20409;-75
2022/12/29 04:15:35;;;;;;;11.57;10.97;;;11.50;99.90;;;;;;6211473;23;20408;-76
2022/12/29 04:18:02;;;;;;;12.13;11.53;;;11.60;99.90;;;;;;6211562;23;20758;-75
2022/12/29 04:23:12;;;;;;;12.87;12.17;;;11.50;99.90;;;;;;6211099;23;20427;-75
2022/12/29 04:25:41;;;;;;;12.00;11.60;;;11.60;99.90;;;;;;6210983;23;20412;-75
2022/12/29 04:28:07;;;;;;;12.60;11.90;;;11.60;99.90;;;;;;6211392;23;20441;-75
2022/12/29 04:30:34;;;;;;;11.80;11.20;;;11.70;99.90;;;;;;6211204;23;20919;-75
2022/12/29 04:33:01;;;;;;;11.73;11.17;;;11.70;99.90;;;;;;6210891;23;20723;-75
2022/12/29 04:35:27;;;;;;;11.77;11.23;;;11.70;99.90;;;;;;6210987;23;20610;-75
2022/12/29 04:37:54;;;;;;;12.17;11.67;;;11.70;99.90;;;;;;6211045;23;20465;-75
2022/12/29 04:40:21;;;;;;;11.73;11.23;;;11.80;99.90;;;;;;6211371;23;20404;-76
2022/12/29 04:42:49;;;;;;;12.73;12.23;;;11.80;99.90;;;;;;6210742;23;20409;-75
2022/12/29 04:45:16;;;;;;;11.83;11.00;;;12.00;99.90;;;;;;6209737;23;20747;-75
2022/12/29 04:47:43;;;;;;;12.53;12.00;;;12.00;99.90;;;;;;6210451;23;20620;-75
2022/12/29 04:50:10;;;;;;;11.30;10.90;;;11.90;99.90;;;;;;6210171;23;20597;-75
2022/12/29 04:52:37;;;;;;;11.10;10.60;;;11.90;99.90;;;;;;6211004;23;20415;-74
2022/12/29 04:55:05;;;;;;;12.10;11.60;;;11.90;99.90;;;;;;6210869;23;20419;-75
2022/12/29 04:57:32;;;;;;;13.07;12.57;;;11.90;99.90;;;;;;6210529;23;20425;-73
2022/12/29 05:00:00;;;;;;;12.40;11.90;;;12.00;99.90;;;;;;6210627;23;20644;-75
2022/12/29 05:02:27;;;;;;;12.50;11.90;;;12.00;99.90;;;;;;6210887;23;20412;-75
2022/12/29 05:04:53;;;;;;;11.87;11.43;;;12.10;99.90;;;;;;6210749;23;20416;-75
2022/12/29 05:07:20;;;;;;;11.80;11.40;;;12.10;99.90;;;;;;6211060;23;20412;-75
2022/12/29 05:09:47;;;;;;;12.30;11.90;;;12.10;99.90;;;;;;6212761;23;20437;-75
2022/12/29 05:12:14;;;;;;;13.00;12.47;;;12.10;99.90;;;;;;6212757;23;20636;-74
2022/12/29 05:14:40;;;;;;;12.00;11.50;;;12.00;99.90;;;;;;6212475;23;20962;-74
2022/12/29 05:17:08;;;;;;;12.07;11.47;;;11.90;99.90;;;;;;6212952;23;20401;-75
2022/12/29 05:19:35;;;;;;;13.30;12.40;;;12.00;99.90;;;;;;6213227;23;20405;-75
2022/12/29 05:22:02;;;;;;;11.87;11.27;;;11.90;99.90;;;;;;6212840;23;20400;-74
2022/12/29 05:24:28;;;;;;;12.50;11.80;;;11.80;99.90;;;;;;6212804;23;20409;-74
2022/12/29 05:26:55;;;;;;;13.40;12.70;;;11.80;99.90;;;;;;6212832;23;20411;-74
2022/12/29 05:29:22;;;;;;;12.57;11.97;;;11.80;99.90;;;;;;6213051;23;20443;-74
2022/12/29 05:31:48;;;;;;;11.90;11.30;;;11.80;99.90;;;;;;6213305;23;20416;-74
2022/12/29 05:34:17;;;;;;;12.87;12.30;;;11.80;99.90;;;;;;6212547;23;20416;-75
2022/12/29 05:36:43;;;;;;;12.20;11.80;;;11.80;99.90;;;;;;6212839;23;20532;-74
2022/12/29 05:39:10;;;;;;;12.90;12.10;;;11.70;99.90;;;;;;6212777;23;20401;-74
2022/12/29 05:41:37;;;;;;;13.00;11.93;;;11.70;99.90;;;;;;6212875;23;20416;-75
2022/12/29 05:44:04;;;;;;;12.93;12.30;;;11.70;99.90;;;;;;6213085;23;20900;-75
2022/12/29 05:46:30;;;;;;;12.17;11.77;;;11.70;99.90;;;;;;6212715;23;20752;-74
2022/12/29 05:48:57;;;;;;;12.47;11.97;;;11.50;99.90;;;;;;6212148;23;20441;-74
2022/12/29 05:51:25;;;;;;;12.80;12.30;;;11.50;99.90;;;;;;6212696;23;20417;-74
2022/12/29 05:53:52;;;;;;;12.73;12.20;;;11.50;99.90;;;;;;6212524;23;20404;-74
2022/12/29 05:56:19;;;;;;;11.80;11.40;;;11.40;99.90;;;;;;6212494;23;20404;-74
2022/12/29 05:58:45;;;;;;;12.20;11.67;;;11.40;99.90;;;;;;6211788;23;20433;-74
2022/12/29 06:01:12;;;;;;;13.07;11.87;;;11.30;99.90;;;;;;6212344;23;20416;-75
2022/12/29 06:03:39;;;;;;;12.20;11.70;;;11.30;99.90;;;;;;6212526;23;20716;-75
2022/12/29 06:06:06;;;;;;;12.30;11.60;;;11.20;99.90;;;;;;6212902;23;20413;-76
2022/12/29 06:08:34;;;;;;;12.63;12.03;;;11.40;99.90;;;;;;6212397;23;20975;-74
2022/12/29 06:11:01;;;;;;;12.53;12.03;;;11.30;99.90;;;;;;6212022;23;20427;-77
2022/12/29 06:13:28;;;;;;;12.10;11.60;;;11.10;99.90;;;;;;6210335;23;20608;-76
2022/12/29 06:15:55;;;;;;;13.23;12.50;;;11.00;99.90;;;;;;6212589;23;20417;-77
2022/12/29 06:18:22;;;;;;;12.03;11.63;;;11.00;99.90;;;;;;6212652;23;20731;-77
2022/12/29 06:20:48;;;;;;;12.50;12.00;;;11.10;99.90;;;;;;6211822;23;20409;-77
2022/12/29 06:23:16;;;;;;;12.10;11.53;;;11.30;99.90;;;;;;6211127;23;20409;-77
2022/12/29 06:25:44;;;;;;;11.87;11.47;;;11.50;99.90;;;;;;6211782;23;20852;-77
2022/12/29 06:28:11;;;;;;;12.47;11.97;;;11.60;99.90;;;;;;6211671;23;20415;-77
2022/12/29 06:30:38;;;;;;;12.07;11.60;;;11.50;99.90;;;;;;6211859;23;20500;-78
2022/12/29 06:33:05;;;;;;;12.23;11.83;;;11.40;99.90;;;;;;6211803;23;20705;-79
2022/12/29 06:35:31;;;;;;;13.00;12.30;;;11.20;99.90;;;;;;6211445;23;20409;-78
2022/12/29 06:37:58;;;;;;;13.00;12.30;;;11.10;99.90;;;;;;6210844;23;20401;-76
2022/12/29 06:40:25;;;;;;;12.50;11.80;;;11.10;99.90;;;;;;6211668;23;20452;-76
2022/12/29 06:42:53;;;;;;;13.00;12.37;;;11.00;99.90;;;;;;6212285;23;20519;-76
2022/12/29 06:45:19;;;;;;;12.00;11.43;;;11.00;99.90;;;;;;6212150;23;20404;-76
2022/12/29 06:47:46;;;;;;;12.23;11.73;;;11.00;99.90;;;;;;6211899;23;20405;-76
2022/12/29 06:50:13;;;;;;;12.23;11.83;;;11.00;99.90;;;;;;6212384;23;20808;-75
2022/12/29 06:52:39;;;;;;;11.93;11.43;;;11.00;99.90;;;;;;6212383;23;20416;-76
2022/12/29 06:55:07;;;;;;;12.60;12.10;;;10.90;99.90;;;;;;6211919;23;20931;-75
2022/12/29 06:57:34;;;;;;;12.47;11.97;;;11.00;99.90;;;;;;6212050;23;20437;-75
2022/12/29 07:00:02;;;;;;;13.10;12.40;;;11.10;99.90;;;;;;6211134;23;20441;-75
2022/12/29 07:02:29;;;;;;;12.63;12.03;;;11.00;99.90;;;;;;6208889;23;20409;-75
2022/12/29 07:04:55;;;;;;;12.20;11.80;;;11.10;99.90;;;;;;6211391;23;20729;-76
2022/12/29 07:07:22;;;;;;;12.70;12.10;;;11.10;99.90;;;;;;6211746;23;20732;-75
2022/12/29 07:09:49;;;;;;;13.00;12.50;;;11.10;99.90;;;;;;6211640;23;20441;-76
2022/12/29 07:12:16;;;;;;;12.70;12.20;;;11.10;99.90;;;;;;6211277;23;20412;-75
2022/12/29 07:14:42;;;;;;;12.20;11.80;;;11.00;99.90;;;;;;6210940;23;20759;-75
2022/12/29 07:17:11;;;;;;;12.47;11.97;;;11.00;99.90;;;;;;6211091;23;20408;-75
2022/12/29 07:19:37;;;;;;;12.40;11.80;;;10.90;99.90;;;;;;6210829;23;20728;-75
2022/12/29 07:22:04;;;;;;;11.10;10.80;;;10.80;99.90;;;;;;6210691;23;20424;-74
2022/12/29 07:24:31;;;;;;;17.63;12.53;;;10.80;99.90;;;;;;6210632;23;20436;-74
2022/12/29 07:26:57;;;;;;;12.00;11.50;;;10.80;99.90;;;;;;6210441;23;20409;-75
2022/12/29 07:29:24;;;;;;;11.70;11.20;;;10.80;99.90;;;;;;6210238;23;20448;-74
2022/12/29 07:31:51;;;;;;;11.97;11.57;;;10.90;99.90;;;;;;6210031;23;20436;-73
2022/12/29 07:34:19;;;;;;;11.70;11.00;;;10.90;99.90;;;;;;6210602;23;20409;-74
2022/12/29 07:36:45;;;;;;;12.67;11.90;;;11.00;99.90;;;;;;6210178;23;20915;-73
2022/12/29 07:39:12;;;;;;;12.60;11.90;;;11.10;99.90;;;;;;6209722;23;20411;-73
2022/12/29 07:41:39;;;;;;;12.30;11.70;;;11.10;99.90;;;;;;6209883;23;20405;-73
2022/12/29 07:44:06;;;;;;;12.00;11.50;;;;;;;;;;6210280;23;20420;-74
2022/12/29 07:46:32;;;;;;;12.10;11.60;;;11.20;99.90;;;;;;6210336;23;20424;-74
2022/12/29 07:48:59;;;;;;;11.27;10.87;;;10.60;99.90;;;;;;6210644;23;20622;-75
2022/12/29 07:51:27;;;;;;;11.13;10.73;;;11.30;99.90;;;;;;6210109;23;20412;-75
2022/12/29 07:53:54;;;;;;;11.60;11.00;;;11.30;99.90;;;;;;6209959;23;20905;-75
2022/12/29 07:56:21;;;;;;;11.53;11.03;;;11.40;99.90;;;;;;6210785;23;20416;-74
2022/12/29 07:58:47;;;;;;;10.53;9.90;;;11.30;99.90;;;;;;6209865;23;20432;-85
2022/12/29 08:01:14;;;;;;;11.00;10.60;;;11.40;99.90;;;;;;6210419;23;20688;-73
2022/12/29 08:03:59;;;;;;;10.83;10.20;;;11.50;99.90;;;;;;6209822;23;20432;-77
2022/12/29 08:06:28;;;;;;;11.77;11.10;;;11.60;99.90;;;;;;6207783;23;20408;-76
2022/12/29 08:08:56;;;;;;;11.47;10.77;;;11.60;99.90;;;;;;6208548;23;20531;-76
2022/12/29 08:11:22;;;;;;;10.43;9.87;;;11.70;99.90;;;;;;6210031;23;20409;-76
2022/12/29 08:13:49;;;;;;;11.17;10.57;;;11.80;99.90;;;;;;6210104;23;20405;-76
2022/12/29 08:16:16;;;;;;;11.10;10.60;;;12.00;99.90;;;;;;6209974;23;20783;-82
2022/12/29 08:18:43;;;;;;;11.97;11.47;;;12.20;99.90;;;;;;6209639;23;20412;-76
2022/12/29 08:21:09;;;;;;;11.37;10.80;;;12.40;99.90;;;;;;6209649;23;20968;-77
2022/12/29 08:23:37;;;;;;;10.77;10.30;;;12.50;99.90;;;;;;6210160;23;20408;-77
2022/12/29 08:26:06;;;;;;;12.13;11.20;;;12.60;99.90;;;;;;6210226;23;20907;-77
2022/12/29 08:28:33;;;;;;;11.50;10.70;;;12.60;99.90;;;;;;6209030;23;20432;-77
2022/12/29 08:31:02;;;;;;;11.30;10.70;;;12.60;99.90;;;;;;6207511;23;20429;-76
2022/12/29 08:33:29;;;;;;;10.07;9.67;;;12.70;99.90;;;;;;6209297;23;20409;-76
2022/12/29 08:36:00;;;;;;;11.50;11.00;;;12.70;99.90;;;;;;6209797;23;20889;-76
2022/12/29 08:38:28;;;;;;;10.80;10.30;;;12.80;99.90;;;;;;6209912;23;20508;-76
2022/12/29 08:40:56;;;;;;;10.27;9.77;;;12.90;99.90;;;;;;6210169;23;20392;-76
2022/12/29 08:43:23;;;;;;;10.47;10.17;;;12.90;99.90;;;;;;6210178;23;20716;-77
2022/12/29 08:45:50;;;;;;;10.70;10.20;;;13.00;99.90;;;;;;6210519;23;20411;-76
2022/12/29 08:48:19;;;;;;;10.97;10.37;;;13.00;99.90;;;;;;6209640;23;20920;-77
2022/12/29 08:50:46;;;;;;;10.33;9.63;;;12.90;99.90;;;;;;6210163;23;20444;-76
2022/12/29 08:53:13;;;;;;;11.00;10.50;;;12.90;99.90;;;;;;6209807;23;20404;-76
2022/12/29 08:55:40;;;;;;;11.70;10.97;;;13.00;99.90;;;;;;6210216;23;20416;-76
2022/12/29 08:58:08;;;;;;;11.03;10.63;;;12.90;99.90;;;;;;6210757;23;20429;-76
2022/12/29 09:00:35;;;;;;;10.27;9.80;;;13.00;99.90;;;;;;6210324;23;20432;-75
2022/12/29 09:03:02;;;;;;;10.90;10.50;;;13.10;99.90;;;;;;6210424;23;20412;-75
2022/12/29 09:05:28;;;;;;;10.43;10.03;;;13.20;99.90;;;;;;6210340;23;20401;-77
2022/12/29 09:07:55;;;;;;;10.43;9.97;;;13.20;99.90;;;;;;6210343;23;20409;-75
2022/12/29 09:10:22;;;;;;;10.47;9.87;;;13.20;99.90;;;;;;6210712;23;20444;-77
2022/12/29 09:12:48;;;;;;;10.83;10.33;;;13.20;99.90;;;;;;6210455;23;20412;-76
2022/12/29 09:15:16;;;;;;;10.40;10.00;;;13.30;99.90;;;;;;6210522;23;20420;-76
2022/12/29 09:17:44;;;;;;;11.47;10.87;;;13.40;99.90;;;;;;6210149;23;20420;-72
2022/12/29 09:20:12;;;;;;;11.73;11.10;;;13.60;99.90;;;;;;6210275;23;20412;-74
2022/12/29 09:22:39;;;;;;;11.33;10.93;;;13.70;99.90;;;;;;6210319;23;20412;-75
2022/12/29 09:25:06;;;;;;;11.53;11.03;;;13.80;99.90;;;;;;6210333;23;20412;-75
2022/12/29 09:27:33;;;;;;;10.77;10.20;;;13.90;99.90;;;;;;6210288;23;20527;-75
2022/12/29 09:30:00;;;;;;;11.20;10.80;;;13.90;99.90;;;;;;6209591;23;20936;-76
2022/12/29 09:32:28;;;;;;;10.20;9.60;;;13.90;99.90;;;;;;6210594;23;20417;-76
2022/12/29 09:34:55;;;;;;;10.77;10.37;;;14.00;99.90;;;;;;6213211;23;20419;-75
2022/12/29 09:37:21;;;;;;;11.30;10.80;;;14.00;99.90;;;;;;6215230;23;20405;-75
2022/12/29 09:39:48;;;;;;;11.20;10.70;;;14.10;99.90;;;;;;6229452;23;20712;-77
2022/12/29 09:42:20;;;;;;;10.50;10.10;;;14.10;99.90;;;;;;6229214;23;20389;-77
2022/12/29 09:45:01;;;;;;;10.93;10.43;;;14.10;99.90;;;;;;6218130;23;20796;-81
2022/12/29 09:47:30;;;;;;;10.50;10.10;;;14.20;99.90;;;;;;6210703;23;20400;-75
2022/12/29 09:50:02;;;;;;;9.93;9.53;;;14.20;99.90;;;;;;6210184;23;20444;-77
2022/12/29 09:52:33;;;;;;;10.60;10.20;;;14.30;99.90;;;;;;6210266;23;20393;-76
2022/12/29 09:55:03;;;;;;;11.50;11.00;;;14.30;99.90;;;;;;6212498;23;20408;-76
2022/12/29 09:57:36;;;;;;;11.30;10.63;;;14.70;99.90;;;;;;6209853;23;20405;-76
2022/12/29 10:00:08;;;;;;;10.50;10.00;;;14.50;99.90;;;;;;6211640;23;20436;-76
2022/12/29 10:02:43;;;;;;;12.70;11.40;;;14.70;99.90;;;;;;6211950;23;20397;-77
2022/12/29 10:05:30;;;;;;;11.60;11.03;;;14.90;99.30;;;;;;6211383;23;20392;-76
2022/12/29 10:08:10;;;;;;;11.40;10.80;;;15.00;99.20;;;;;;6211262;23;20650;-77
2022/12/29 10:10:41;;;;;;;11.67;11.20;;;15.10;99.50;;;;;;6211624;23;20436;-77
2022/12/29 10:13:22;;;;;;;10.60;10.10;;;15.00;99.10;;;;;;6211417;23;20415;-76
2022/12/29 10:16:01;;;;;;;10.63;10.23;;;14.90;99.50;;;;;;6211280;23;20400;-76
2022/12/29 10:18:57;;;;;;;11.60;11.20;;;14.80;99.60;;;;;;6210801;23;20389;-77
2022/12/29 10:21:29;;;;;;;13.30;11.03;;;14.60;99.90;;;;;;6210394;23;20409;-76
2022/12/29 10:23:57;;;;;;;10.50;10.00;;;14.50;99.90;;;;;;6210649;23;20430;-76
2022/12/29 10:26:28;;;;;;;11.20;10.70;;;14.50;99.90;;;;;;6210635;23;20405;-76
2022/12/29 10:28:59;;;;;;;10.87;10.37;;;14.70;99.90;;;;;;6210615;23;20396;-76
2022/12/29 10:31:33;;;;;;;11.60;11.10;;;14.70;99.90;;;;;;6210467;23;20444;-77
2022/12/29 10:34:06;;;;;;;10.60;10.30;;;14.70;99.90;;;;;;6210582;23;20392;-76
2022/12/29 10:36:38;;;;;;;11.07;10.50;;;14.70;99.90;;;;;;6210811;23;20413;-76
2022/12/29 10:39:14;;;;;;;10.47;10.07;;;14.70;99.90;;;;;;6210608;23;20870;-75
2022/12/29 10:41:46;;;;;;;11.20;10.70;;;14.70;99.90;;;;;;6210376;23;20388;-75
2022/12/29 10:44:17;;;;;;;11.93;11.53;;;14.70;99.90;;;;;;6210511;23;20515;-76
2022/12/29 10:46:49;;;;;;;11.47;11.07;;;14.70;99.90;;;;;;6210646;23;20393;-76
2022/12/29 10:49:19;;;;;;;13.40;12.40;;;14.80;99.90;;;;;;6210542;23;20400;-76
2022/12/29 10:51:51;;;;;;;12.60;12.10;;;15.20;99.90;;;;;;6210213;23;20432;-76
2022/12/29 10:54:24;;;;;;;11.73;11.13;;;15.70;99.90;;;;;;6210658;23;20389;-77
2022/12/29 10:56:53;;;;;;;12.57;11.97;;;16.10;98.70;;;;;;6210910;23;20723;-76
2022/12/29 10:59:23;;;;;;;13.60;12.70;;;16.60;98.40;;;;;;6210221;23;20460;-76
2022/12/29 11:01:57;;;;;;;13.03;12.33;;;17.70;96.50;;;;;;6211034;23;20539;-76
2022/12/29 11:04:35;;;;;;;12.27;11.53;;;18.40;94.20;;;;;;6209995;23;20393;-76
2022/12/29 11:07:04;;;;;;;11.93;11.43;;;18.40;93.70;;;;;;6210037;23;20396;-77
2022/12/29 11:09:34;;;;;;;12.27;11.77;;;18.60;93.50;;;;;;6210211;23;20405;-77
2022/12/29 11:12:01;;;;;;;12.13;11.73;;;17.90;94.00;;;;;;6210365;23;20400;-77
2022/12/29 11:14:30;;;;;;;11.70;11.30;;;17.40;95.40;;;;;;6209910;23;20917;-78
2022/12/29 11:17:01;;;;;;;12.37;11.77;;;16.70;95.90;;;;;;6210017;23;20669;-76
2022/12/29 11:19:31;;;;;;;12.40;11.80;;;16.30;96.90;;;;;;6209828;23;20440;-76
2022/12/29 11:22:14;;;;;;;12.03;11.53;;;16.00;97.70;;;;;;6209934;23;20393;-76
2022/12/29 11:24:46;;;;;;;10.90;10.43;;;15.90;97.70;;;;;;6210141;23;20768;-77
2022/12/29 11:27:17;;;;;;;10.17;9.77;;;15.90;98.40;;;;;;6209804;23;20927;-77
2022/12/29 11:29:45;;;;;;;10.77;10.37;;;15.80;98.30;;;;;;6209810;23;20740;-77
2022/12/29 11:32:13;;;;;;;11.17;10.70;;;15.80;98.80;;;;;;6209569;23;20645;-77
2022/12/29 11:34:41;;;;;;;11.70;11.20;;;15.80;98.20;;;;;;6209358;23;20888;-76
2022/12/29 11:37:13;;;;;;;10.90;10.40;;;15.70;98.20;;;;;;6209824;23;20405;-76
2022/12/29 11:39:45;;;;;;;11.30;10.90;;;15.70;98.60;;;;;;6209497;23;20393;-76
2022/12/29 11:42:16;;;;;;;10.60;10.10;;;15.70;98.70;;;;;;6209704;23;20394;-76
2022/12/29 11:44:46;;;;;;;11.10;10.70;;;15.80;98.70;;;;;;6209835;23;20685;-76
2022/12/29 11:47:22;;;;;;;10.90;10.40;;;15.70;99.40;;;;;;6209597;23;20443;-76
2022/12/29 11:49:53;;;;;;;13.17;12.40;;;15.40;99.90;;;;;;6210139;23;20397;-77
2022/12/29 11:52:24;;;;;;;11.90;11.40;;;15.40;99.90;;;;;;6210232;23;20391;-78
2022/12/29 11:54:52;;;;;;;12.80;12.10;;;15.00;99.90;;;;;;6210431;23;20495;-77
2022/12/29 11:57:20;;;;;;;13.83;12.93;;;14.90;99.90;;;;;;6209604;23;20415;-77
2022/12/29 11:59:51;;;;;;;10.73;10.27;;;15.10;99.90;;;;;;6209675;23;20444;-77
2022/12/29 12:02:44;;;;;;;11.40;10.93;;;15.30;99.90;;;;;;6209830;23;20401;-76
2022/12/29 12:05:20;;;;;;;11.07;10.67;;;15.10;99.90;;;;;;6209677;23;20401;-76
2022/12/29 12:07:50;;;;;;;12.90;12.40;;;15.30;99.90;;;;;;6209902;23;20404;-78
2022/12/29 12:10:30;;;;;;;13.87;13.17;;;15.20;99.90;;;;;;6209915;23;20617;-77
2022/12/29 12:13:04;;;;;;;12.10;11.50;;;15.10;99.90;;;;;;6209348;23;20728;-78
2022/12/29 12:15:38;;;;;;;12.13;11.50;;;14.70;99.90;;;;;;6209915;23;20440;-78
2022/12/29 12:18:11;;;;;;;12.67;12.17;;;14.60;99.90;;;;;;6210025;23;20720;-77
2022/12/29 12:20:46;;;;;;;11.80;11.20;;;14.70;99.90;;;;;;6209872;23;20385;-77
2022/12/29 12:23:20;;;;;;;12.60;12.10;;;14.80;99.90;;;;;;6209365;23;20388;-77
2022/12/29 12:25:56;;;;;;;11.23;10.77;;;14.90;99.90;;;;;;6209384;23;20968;-77
2022/12/29 12:28:33;;;;;;;12.43;11.70;;;14.90;99.90;;;;;;6228642;23;20396;-76
2022/12/29 12:31:04;;;;;;;11.30;10.90;;;15.20;99.90;;;;;;6222354;23;20439;-77
2022/12/29 12:33:34;;;;;;;12.90;12.40;;;15.10;99.90;;;;;;6219927;23;20404;-76
2022/12/29 12:36:19;;;;;;;13.30;12.80;;;15.10;99.90;;;;;;6214746;23;20405;-76
2022/12/29 12:38:54;;;;;;;10.50;10.00;;;15.30;99.90;;;;;;6211632;23;20483;-76
2022/12/29 12:41:31;;;;;;;11.10;10.70;;;15.30;99.90;;;;;;6211098;23;20391;-76
2022/12/29 12:44:06;;;;;;;11.93;11.43;;;15.30;99.90;;;;;;6210784;23;20869;-76
2022/12/29 12:46:51;;;;;;;11.40;11.00;;;15.10;99.90;;;;;;6211508;23;20387;-76
2022/12/29 12:49:43;;;;;;;10.77;10.37;;;15.00;99.90;;;;;;6211133;23;20396;-76
2022/12/29 12:52:23;;;;;;;12.20;11.70;;;15.00;99.90;;;;;;6210475;23;20449;-76
2022/12/29 12:55:06;;;;;;;12.33;11.83;;;14.80;99.90;;;;;;6211373;23;20395;-76
2022/12/29 12:57:47;;;;;;;13.17;12.67;;;14.60;99.90;;;;;;6210995;23;20479;-76
2022/12/29 13:00:17;;;;;;;11.83;11.17;;;14.60;99.90;;;;;;6210362;23;20819;-76
2022/12/29 13:02:57;;;;;;;11.90;11.40;;;14.60;99.90;;;;;;6210412;23;20416;-76
2022/12/29 13:05:36;;;;;;;13.20;12.43;;;14.60;99.90;;;;;;6210844;23;20397;-76
2022/12/29 13:08:31;;;;;;;12.80;12.13;;;14.50;99.90;;;;;;6211351;23;20403;-76
2022/12/29 13:11:05;;;;;;;13.53;12.80;;;14.30;99.90;;;;;;6210485;23;20464;-76
2022/12/29 13:13:49;;;;;;;13.07;12.23;;;14.30;99.90;;;;;;6210655;23;20404;-76
2022/12/29 13:16:27;;;;;;;12.63;12.13;;;14.20;99.90;;;;;;6210760;23;20389;-76
2022/12/29 13:19:00;;;;;;;10.93;10.43;;;14.10;99.90;;;;;;6210497;23;20405;-76
2022/12/29 13:21:38;;;;;;;13.17;12.60;;;14.00;99.90;;;;;;6210731;23;20385;-76
2022/12/29 13:24:16;;;;;;;12.60;12.10;;;13.90;99.90;;;;;;6211275;23;20385;-76